Time;durP1;ratioP1;P1;durP2;ratioP2;P2;SDS_P1;SDS_P2;PMS_P1;PMS_P2;Temp;Humidity;BMP_temperature;BMP_pressure;BME280_temperature;BME280_humidity;BME280_pressure;Samples;Min_cycle;Max_cycle;Signal;HPM_P1;HPM_P2
2023/02/13 00:01:01;;;;;;;77.53;34.07;;;6.40;99.90;;;;;;5064455;28;20240;-65
2023/02/13 00:04:08;;;;;;;86.13;35.67;;;6.30;99.90;;;;;;5068062;28;20257;-65
2023/02/13 00:07:14;;;;;;;86.53;35.60;;;6.30;99.90;;;;;;5070803;28;20620;-65
2023/02/13 00:10:20;;;;;;;75.47;33.20;;;6.20;99.90;;;;;;5069082;28;20230;-66
2023/02/13 00:13:30;;;;;;;78.90;34.50;;;6.10;99.90;;;;;;5065709;28;21627;-66
2023/02/13 00:16:35;;;;;;;90.23;35.47;;;6.00;99.90;;;;;;5068030;28;20273;-65
2023/02/13 00:19:41;;;;;;;85.07;33.07;;;6.00;99.90;;;;;;5064149;28;20191;-65
2023/02/13 00:22:47;;;;;;;87.07;34.30;;;5.90;99.90;;;;;;5067072;28;20222;-65
2023/02/13 00:25:53;;;;;;;85.47;34.20;;;5.70;99.90;;;;;;5063189;28;20230;-65
2023/02/13 00:29:00;;;;;;;90.50;36.13;;;5.70;99.90;;;;;;5065947;28;20250;-65
2023/02/13 00:32:05;;;;;;;92.70;35.27;;;5.50;99.90;;;;;;5065972;28;20227;-66
2023/02/13 00:35:11;;;;;;;95.13;38.20;;;5.50;99.90;;;;;;5062459;28;20204;-65
2023/02/13 00:38:17;;;;;;;100.47;38.30;;;5.50;99.90;;;;;;5064215;28;20716;-65
2023/02/13 00:41:23;;;;;;;97.50;37.37;;;5.50;99.90;;;;;;5066509;28;20615;-65
2023/02/13 00:44:30;;;;;;;98.20;37.63;;;5.40;99.90;;;;;;5067432;28;20230;-65
2023/02/13 00:47:36;;;;;;;98.13;36.93;;;5.30;99.90;;;;;;5064987;28;20222;-65
2023/02/13 00:50:41;;;;;;;105.43;38.30;;;5.30;99.90;;;;;;5064788;28;20195;-66
2023/02/13 00:53:47;;;;;;;102.30;37.07;;;5.20;99.90;;;;;;5064685;28;20273;-66
2023/02/13 00:56:54;;;;;;;102.23;38.53;;;5.10;99.90;;;;;;5063410;28;20195;-65
2023/02/13 01:00:01;;;;;;;101.57;38.23;;;5.00;99.90;;;;;;5070049;28;20223;-65
2023/02/13 01:03:08;;;;;;;95.73;36.27;;;4.80;99.90;;;;;;5064071;28;20609;-65
2023/02/13 01:06:13;;;;;;;93.27;36.07;;;4.70;99.90;;;;;;5064940;28;20578;-65
2023/02/13 01:09:19;;;;;;;108.07;36.67;;;4.60;99.90;;;;;;5064393;28;20610;-65
2023/02/13 01:12:25;;;;;;;99.43;36.53;;;4.40;99.90;;;;;;5066182;28;20865;-65
2023/02/13 01:15:32;;;;;;;98.47;34.93;;;4.40;99.90;;;;;;5062823;28;20650;-65
2023/02/13 01:18:39;;;;;;;99.20;36.50;;;4.30;99.90;;;;;;5066840;28;20226;-65
2023/02/13 01:21:45;;;;;;;93.03;36.57;;;4.10;99.90;;;;;;5064571;28;20222;-65
2023/02/13 01:24:51;;;;;;;106.07;36.33;;;4.10;99.90;;;;;;5066529;28;20306;-65
2023/02/13 01:27:57;;;;;;;96.80;34.57;;;4.00;99.90;;;;;;5070231;28;20199;-65
2023/02/13 01:31:04;;;;;;;93.67;35.40;;;3.90;99.90;;;;;;5069456;28;20562;-65
2023/02/13 01:34:11;;;;;;;103.20;36.03;;;3.80;99.90;;;;;;5058835;28;20246;-65
2023/02/13 01:37:16;;;;;;;88.27;31.97;;;3.70;99.90;;;;;;5065390;28;20245;-65
2023/02/13 01:40:22;;;;;;;91.43;34.23;;;3.60;99.90;;;;;;5065104;28;20252;-65
2023/02/13 01:43:48;;;;;;;90.83;34.63;;;3.50;99.90;;;;;;5069501;28;20247;-65
2023/02/13 01:46:56;;;;;;;93.77;33.60;;;3.40;99.90;;;;;;5078537;28;20221;-65
2023/02/13 01:50:07;;;;;;;92.87;33.23;;;3.30;99.90;;;;;;5072941;28;20192;-65
2023/02/13 01:53:18;;;;;;;93.93;33.40;;;3.20;99.90;;;;;;5079437;28;20265;-65
2023/02/13 01:56:28;;;;;;;86.47;31.53;;;3.10;99.90;;;;;;5076208;28;20241;-65
2023/02/13 01:59:40;;;;;;;93.17;32.83;;;3.10;99.90;;;;;;5075977;28;20219;-65
2023/02/13 02:02:53;;;;;;;102.67;33.93;;;3.00;99.90;;;;;;5072554;28;20268;-65
2023/02/13 02:06:01;;;;;;;88.80;32.83;;;2.90;99.90;;;;;;5074166;28;20546;-65
2023/02/13 02:09:14;;;;;;;95.30;33.80;;;2.80;99.90;;;;;;5071502;28;20243;-65
2023/02/13 02:12:28;;;;;;;88.40;31.47;;;2.70;99.90;;;;;;5073468;28;20203;-65
2023/02/13 02:15:34;;;;;;;93.63;31.90;;;2.70;99.90;;;;;;5064801;28;20272;-66
2023/02/13 02:18:41;;;;;;;101.40;33.77;;;2.60;99.90;;;;;;5071669;28;20651;-66
2023/02/13 02:22:17;;;;;;;104.37;34.97;;;2.60;99.90;;;;;;5070761;28;20227;-66
2023/02/13 02:25:54;;;;;;;104.77;34.53;;;2.50;99.90;;;;;;5064382;28;20222;-65
2023/02/13 02:29:39;;;;;;;91.93;30.90;;;2.50;99.90;;;;;;5075748;28;20562;-66
2023/02/13 02:32:57;;;;;;;98.17;34.10;;;2.40;99.90;;;;;;5066661;28;20338;-65
2023/02/13 02:36:21;;;;;;;87.07;32.23;;;2.30;99.90;;;;;;5072989;28;20187;-66
2023/02/13 02:39:37;;;;;;;85.87;30.00;;;2.30;99.90;;;;;;5069152;28;20227;-65
2023/02/13 02:42:56;;;;;;;95.40;32.37;;;2.10;99.90;;;;;;5064455;28;20207;-65
2023/02/13 02:46:10;;;;;;;97.30;32.97;;;2.10;99.90;;;;;;5065727;28;20280;-65
2023/02/13 02:52:49;;;;;;;91.63;32.10;;;2.00;99.90;;;;;;5070052;28;20227;-65
2023/02/13 02:56:00;;;;;;;90.03;30.80;;;1.90;99.90;;;;;;5072624;28;20211;-66
2023/02/13 03:06:10;;;;;;;79.63;28.97;;;1.70;99.90;;;;;;5067482;28;20219;-65
2023/02/13 03:23:30;;;;;;;75.70;28.37;;;1.40;99.90;;;;;;5067233;28;20219;-66
2023/02/13 03:26:49;;;;;;;66.97;25.97;;;1.50;99.90;;;;;;5064819;28;20244;-65
2023/02/13 03:30:07;;;;;;;68.77;25.97;;;1.40;99.90;;;;;;5078757;28;20440;-65
2023/02/13 03:33:25;;;;;;;57.27;23.10;;;1.30;99.90;;;;;;5068342;28;20211;-65
2023/02/13 03:40:06;;;;;;;55.67;21.77;;;1.10;99.90;;;;;;5062716;28;20227;-65
2023/02/13 03:43:17;;;;;;;42.73;19.90;;;1.10;99.90;;;;;;5067382;28;20227;-65
2023/02/13 03:46:25;;;;;;;40.17;19.73;;;1.00;99.90;;;;;;5071387;28;20235;-66
2023/02/13 03:53:02;;;;;;;47.73;20.47;;;0.90;99.90;;;;;;5063075;28;20218;-65
2023/02/13 03:59:37;;;;;;;58.40;23.40;;;0.80;99.90;;;;;;5069282;28;20194;-65
2023/02/13 04:02:51;;;;;;;61.97;23.77;;;0.80;99.90;;;;;;5070758;28;20238;-65
2023/02/13 04:06:03;;;;;;;54.30;20.90;;;0.80;99.90;;;;;;5067906;28;20274;-65
2023/02/13 04:09:10;;;;;;;48.87;21.27;;;0.70;99.90;;;;;;5060622;28;20239;-65
2023/02/13 04:12:21;;;;;;;53.83;21.73;;;0.70;99.90;;;;;;5071084;28;20260;-65
2023/02/13 04:15:32;;;;;;;60.53;22.60;;;0.60;99.90;;;;;;5069767;28;20211;-65
2023/02/13 04:18:39;;;;;;;55.37;23.53;;;0.60;99.90;;;;;;5064707;28;20215;-65
2023/02/13 04:21:54;;;;;;;82.20;23.73;;;0.60;99.90;;;;;;5066712;28;20222;-65
2023/02/13 04:25:00;;;;;;;66.97;24.07;;;0.60;99.90;;;;;;5067021;28;20247;-65
2023/02/13 04:28:08;;;;;;;117.13;27.53;;;0.50;99.90;;;;;;5064139;28;20199;-65
2023/02/13 04:31:14;;;;;;;89.73;27.07;;;0.50;99.90;;;;;;5067488;28;20797;-65
2023/02/13 04:34:21;;;;;;;198.17;27.43;;;0.50;99.90;;;;;;5063082;28;20343;-65
2023/02/13 04:37:27;;;;;;;146.07;29.10;;;0.50;99.90;;;;;;5065616;28;20333;-65
2023/02/13 04:40:33;;;;;;;230.57;31.77;;;0.50;99.90;;;;;;5066363;28;20266;-65
2023/02/13 04:43:40;;;;;;;166.67;31.23;;;0.50;99.90;;;;;;5059615;28;20199;-66
2023/02/13 04:46:46;;;;;;;174.23;30.57;;;0.50;99.90;;;;;;5067724;28;20227;-66
2023/02/13 04:49:52;;;;;;;106.40;30.77;;;0.40;99.90;;;;;;5063468;28;20219;-65
2023/02/13 04:52:58;;;;;;;98.47;29.30;;;0.40;99.90;;;;;;5071351;28;20246;-65
2023/02/13 04:56:04;;;;;;;100.97;31.13;;;0.40;99.90;;;;;;5068758;28;20234;-65
2023/02/13 04:59:12;;;;;;;105.40;31.23;;;0.40;99.90;;;;;;5068609;28;20228;-65
2023/02/13 05:02:18;;;;;;;155.43;33.20;;;0.50;99.90;;;;;;5073993;28;20724;-65
2023/02/13 05:05:24;;;;;;;158.77;32.77;;;0.50;99.90;;;;;;5070320;28;20273;-65
2023/02/13 05:08:30;;;;;;;203.23;33.47;;;0.50;99.90;;;;;;5072640;28;20647;-64
2023/02/13 05:11:39;;;;;;;275.90;36.40;;;0.50;99.90;;;;;;5067257;28;20225;-65
2023/02/13 05:14:47;;;;;;;207.63;32.63;;;0.50;99.90;;;;;;5074082;28;20214;-64
2023/02/13 05:17:53;;;;;;;199.37;31.77;;;0.60;99.90;;;;;;5067718;28;20705;-66
2023/02/13 05:24:22;;;;;;;399.07;36.33;;;0.50;99.90;;;;;;5065014;28;20251;-64
2023/02/13 05:27:28;;;;;;;315.53;32.50;;;0.50;99.90;;;;;;5059715;28;20904;-64
2023/02/13 05:30:35;;;;;;;205.20;30.43;;;0.40;99.90;;;;;;5068188;28;20554;-64
2023/02/13 05:33:41;;;;;;;220.10;38.57;;;0.30;99.90;;;;;;5064686;28;20242;-65
2023/02/13 05:36:47;;;;;;;180.30;36.07;;;0.30;99.90;;;;;;5068040;28;20219;-64
2023/02/13 05:39:53;;;;;;;184.47;34.87;;;0.30;99.90;;;;;;5064932;28;20836;-64
2023/02/13 05:42:58;;;;;;;296.27;44.37;;;0.30;99.90;;;;;;5059975;28;20642;-64
2023/02/13 05:46:08;;;;;;;302.40;39.30;;;0.40;99.90;;;;;;5063648;28;20314;-64
2023/02/13 05:49:15;;;;;;;200.57;35.20;;;0.40;99.90;;;;;;5062028;28;20203;-64
2023/02/13 05:52:20;;;;;;;334.03;41.87;;;0.40;99.90;;;;;;5066803;28;20333;-64
2023/02/13 05:55:26;;;;;;;234.00;36.27;;;0.40;99.90;;;;;;5063936;28;20226;-65
2023/02/13 05:58:33;;;;;;;232.97;36.80;;;0.40;99.90;;;;;;5064637;28;20207;-65
2023/02/13 06:01:41;;;;;;;130.50;35.83;;;0.40;99.90;;;;;;5064463;28;20350;-65
2023/02/13 06:04:46;;;;;;;301.30;36.37;;;0.30;99.90;;;;;;5068344;28;20214;-64
2023/02/13 06:07:52;;;;;;;144.47;34.20;;;0.40;99.90;;;;;;5066528;28;20780;-64
2023/02/13 06:10:58;;;;;;;382.00;41.67;;;0.40;99.90;;;;;;5067384;28;20252;-64
2023/02/13 06:14:05;;;;;;;185.03;36.60;;;0.40;99.90;;;;;;5064403;28;20238;-64
2023/02/13 06:17:12;;;;;;;191.47;36.27;;;0.40;99.90;;;;;;5067753;28;20238;-64
2023/02/13 06:20:18;;;;;;;182.83;36.07;;;0.50;99.90;;;;;;5063160;28;20246;-66
2023/02/13 06:23:23;;;;;;;178.47;37.90;;;0.50;99.90;;;;;;5068459;28;20191;-65
2023/02/13 06:26:29;;;;;;;187.83;37.97;;;0.50;99.90;;;;;;5062590;28;20235;-65
2023/02/13 06:29:34;;;;;;;247.40;41.07;;;0.50;99.90;;;;;;5079757;28;20202;-65
2023/02/13 06:32:42;;;;;;;162.97;38.20;;;0.40;99.90;;;;;;5064576;28;20558;-65
2023/02/13 06:35:48;;;;;;;162.50;37.63;;;0.40;99.90;;;;;;5069590;28;20276;-65
2023/02/13 06:38:54;;;;;;;117.17;35.00;;;0.40;99.90;;;;;;5067986;28;20615;-65
2023/02/13 06:42:00;;;;;;;161.10;37.77;;;0.30;99.90;;;;;;5067201;28;20578;-66
2023/02/13 06:45:07;;;;;;;115.77;35.93;;;0.20;99.90;;;;;;5068750;28;20649;-65
2023/02/13 06:48:15;;;;;;;200.57;37.80;;;0.20;99.90;;;;;;5073756;28;20260;-65
2023/02/13 06:57:12;;;;;;;137.00;33.67;;;0.00;99.90;;;;;;4839058;29;20250;-61
2023/02/13 07:00:19;;;;;;;131.43;35.27;;;0.00;99.90;;;;;;4834991;29;20240;-61
2023/02/13 07:03:26;;;;;;;95.10;32.60;;;-0.10;99.90;;;;;;4825131;29;20236;-62
2023/02/13 07:06:32;;;;;;;95.60;33.73;;;-0.10;99.90;;;;;;4822604;29;20629;-61
2023/02/13 07:09:38;;;;;;;99.47;31.97;;;-0.10;99.90;;;;;;4819636;29;20232;-61
2023/02/13 07:12:45;;;;;;;99.60;32.87;;;-0.10;99.90;;;;;;4823528;29;20262;-61
2023/02/13 07:16:08;;;;;;;97.10;32.50;;;-0.10;99.90;;;;;;4819063;29;20249;-62
2023/02/13 07:19:15;;;;;;;87.53;32.17;;;-0.10;99.90;;;;;;4820190;29;20246;-61
2023/02/13 07:22:21;;;;;;;127.53;33.00;;;-0.10;99.90;;;;;;4827926;29;20269;-61
2023/02/13 07:25:28;;;;;;;96.20;31.83;;;0.00;99.90;;;;;;4822903;29;20316;-61
2023/02/13 07:28:34;;;;;;;89.13;31.03;;;0.00;99.90;;;;;;4819758;29;20257;-61
2023/02/13 07:31:40;;;;;;;87.87;31.27;;;0.00;99.90;;;;;;4818195;29;20349;-61
2023/02/13 07:34:47;;;;;;;90.20;30.97;;;0.00;99.90;;;;;;4823579;29;20221;-62
2023/02/13 07:38:06;;;;;;;87.60;31.57;;;0.00;99.90;;;;;;4816394;29;20541;-62
2023/02/13 07:41:11;;;;;;;68.43;28.60;;;0.10;99.90;;;;;;4821812;29;20579;-62
2023/02/13 07:44:17;;;;;;;72.17;29.87;;;0.20;99.90;;;;;;4814876;29;20215;-62
2023/02/13 07:47:23;;;;;;;69.23;30.13;;;0.30;99.90;;;;;;4814056;29;20232;-61
2023/02/13 07:50:31;;;;;;;61.23;28.27;;;0.40;99.90;;;;;;4825140;29;20581;-61
2023/02/13 07:53:36;;;;;;;58.37;28.80;;;0.50;99.90;;;;;;4814516;29;20413;-62
2023/02/13 07:56:42;;;;;;;64.50;28.33;;;0.60;99.90;;;;;;4812040;29;20739;-62
2023/02/13 07:59:49;;;;;;;59.73;28.67;;;0.70;99.90;;;;;;4821014;29;20706;-61
2023/02/13 08:02:55;;;;;;;66.13;29.30;;;0.80;99.90;;;;;;4820527;29;20224;-61
2023/02/13 08:06:02;;;;;;;67.97;29.80;;;1.00;99.90;;;;;;4819474;29;20264;-62
2023/02/13 08:12:38;;;;;;;62.53;29.33;;;1.20;99.90;;;;;;4821225;29;20211;-62
2023/02/13 08:15:48;;;;;;;65.90;31.93;;;1.40;99.90;;;;;;4824981;29;20231;-62
2023/02/13 08:18:54;;;;;;;78.77;32.43;;;1.60;99.90;;;;;;4818323;29;20272;-62
2023/02/13 08:22:01;;;;;;;77.40;33.97;;;1.80;99.90;;;;;;4825006;29;20367;-61
2023/02/13 08:25:08;;;;;;;80.63;33.20;;;2.00;99.90;;;;;;4823645;29;20297;-62
2023/02/13 08:28:13;;;;;;;78.43;34.17;;;2.30;99.90;;;;;;4824283;29;20243;-62
2023/02/13 08:31:19;;;;;;;90.67;34.90;;;2.50;99.90;;;;;;4822040;29;20276;-62
2023/02/13 08:34:26;;;;;;;87.63;34.77;;;2.80;99.90;;;;;;4824483;29;20276;-62
2023/02/13 08:37:33;;;;;;;84.00;33.47;;;3.00;99.90;;;;;;4812254;29;20229;-62
2023/02/13 08:40:39;;;;;;;74.93;32.63;;;3.40;99.90;;;;;;4817150;29;20235;-62
2023/02/13 08:43:45;;;;;;;73.33;31.77;;;3.70;99.90;;;;;;4816420;29;20212;-62
2023/02/13 08:46:50;;;;;;;59.67;29.10;;;4.10;99.90;;;;;;4816622;29;20282;-62
2023/02/13 08:49:56;;;;;;;59.70;27.50;;;4.40;99.90;;;;;;4822821;29;20325;-62
2023/02/13 08:53:03;;;;;;;56.03;27.43;;;4.70;99.90;;;;;;4822298;29;20723;-62
2023/02/13 08:56:10;;;;;;;48.30;24.30;;;5.00;99.90;;;;;;4822340;29;20247;-62
2023/02/13 08:59:15;;;;;;;45.60;23.20;;;5.40;99.90;;;;;;4808315;29;20282;-62
2023/02/13 09:02:21;;;;;;;43.53;22.80;;;5.60;99.90;;;;;;4823720;29;20215;-62
2023/02/13 09:05:28;;;;;;;37.73;21.57;;;5.90;99.90;;;;;;4820680;29;20215;-62
2023/02/13 09:08:36;;;;;;;35.37;19.97;;;6.10;99.90;;;;;;4822813;29;20219;-62
2023/02/13 09:11:42;;;;;;;38.03;19.73;;;6.20;99.90;;;;;;4823928;29;20592;-62
2023/02/13 09:14:48;;;;;;;37.97;19.80;;;6.50;99.90;;;;;;4818040;29;20204;-62
2023/02/13 09:17:54;;;;;;;34.67;18.97;;;6.60;99.90;;;;;;4812751;29;20203;-62
2023/02/13 09:21:00;;;;;;;36.77;19.63;;;6.80;99.90;;;;;;4822047;29;20245;-62
2023/02/13 09:24:09;;;;;;;36.23;18.77;;;7.00;99.90;;;;;;4820719;29;20200;-63
2023/02/13 09:27:15;;;;;;;34.57;19.33;;;7.10;99.90;;;;;;4822842;29;20641;-62
2023/02/13 09:30:23;;;;;;;32.03;18.80;;;7.20;99.90;;;;;;4823597;29;20223;-62
2023/02/13 09:33:28;;;;;;;32.37;18.30;;;7.50;99.90;;;;;;4812689;29;20255;-62
2023/02/13 09:36:35;;;;;;;35.07;18.70;;;7.70;99.90;;;;;;4811597;29;20721;-62
2023/02/13 09:39:42;;;;;;;33.60;18.37;;;7.90;99.90;;;;;;4822710;29;20315;-63
2023/02/13 09:42:49;;;;;;;31.83;19.10;;;8.00;99.90;;;;;;4823972;29;20813;-62
2023/02/13 09:45:58;;;;;;;35.13;18.77;;;8.20;99.90;;;;;;4823852;29;20605;-62
2023/02/13 09:49:09;;;;;;;35.60;19.03;;;8.50;99.90;;;;;;4823087;29;20239;-62
2023/02/13 09:52:15;;;;;;;30.00;17.87;;;8.70;99.90;;;;;;4818500;29;20536;-62
2023/02/13 09:55:29;;;;;;;33.07;18.50;;;8.80;99.90;;;;;;4821694;29;20239;-63
2023/02/13 09:58:42;;;;;;;31.47;18.23;;;8.90;99.90;;;;;;4816998;29;20207;-63
2023/02/13 10:01:50;;;;;;;34.83;17.87;;;9.10;99.90;;;;;;4817414;29;20293;-63
2023/02/13 10:05:05;;;;;;;30.27;16.57;;;9.30;99.90;;;;;;4814751;29;20268;-63
2023/02/13 10:08:24;;;;;;;27.77;16.37;;;9.60;99.90;;;;;;4816538;29;20260;-63
2023/02/13 10:11:42;;;;;;;28.53;15.47;;;9.90;99.90;;;;;;4819928;29;20304;-63
2023/02/13 10:15:04;;;;;;;28.27;14.77;;;10.20;99.90;;;;;;4826929;29;20212;-63
2023/02/13 10:18:13;;;;;;;25.00;14.97;;;10.30;99.90;;;;;;4826855;29;20216;-64
2023/02/13 10:21:23;;;;;;;26.60;15.40;;;10.60;99.90;;;;;;4823122;29;20247;-64
2023/02/13 10:24:34;;;;;;;24.57;13.97;;;10.80;99.90;;;;;;4824600;29;20225;-63
2023/02/13 10:27:46;;;;;;;23.17;13.77;;;11.30;99.90;;;;;;4815557;29;20228;-63
2023/02/13 10:30:56;;;;;;;26.17;14.80;;;11.60;99.90;;;;;;4820068;29;20216;-64
2023/02/13 10:34:05;;;;;;;35.73;18.63;;;11.30;99.90;;;;;;4813471;29;20224;-63
2023/02/13 10:37:17;;;;;;;39.13;19.53;;;11.50;99.90;;;;;;4818760;29;20277;-63
2023/02/13 10:40:30;;;;;;;39.73;20.63;;;11.90;99.90;;;;;;4823610;29;20329;-63
2023/02/13 10:43:46;;;;;;;47.03;23.40;;;12.00;99.90;;;;;;4817592;29;20260;-63
2023/02/13 10:47:00;;;;;;;41.07;20.00;;;12.10;99.90;;;;;;4826430;29;20216;-63
2023/02/13 10:50:16;;;;;;;38.97;19.53;;;11.80;99.90;;;;;;4825569;29;20745;-63
2023/02/13 10:53:30;;;;;;;32.30;18.10;;;12.00;99.90;;;;;;4814021;29;20552;-63
2023/02/13 10:56:41;;;;;;;27.87;16.30;;;12.10;99.90;;;;;;4819498;29;20572;-63
2023/02/13 11:00:04;;;;;;;29.70;16.80;;;12.50;99.90;;;;;;4825995;29;20597;-64
2023/02/13 11:03:21;;;;;;;26.53;16.57;;;12.70;99.90;;;;;;4817919;29;20208;-64
2023/02/13 11:06:29;;;;;;;29.40;15.90;;;12.60;99.90;;;;;;4825005;29;20692;-61
2023/02/13 11:09:42;;;;;;;30.13;16.93;;;12.70;99.90;;;;;;4824805;29;20846;-61
2023/02/13 11:12:52;;;;;;;29.60;17.00;;;12.60;99.90;;;;;;4829926;29;20231;-61
2023/02/13 11:16:03;;;;;;;24.83;15.97;;;12.70;99.90;;;;;;4815773;29;20227;-62
2023/02/13 11:19:18;;;;;;;28.73;16.70;;;12.80;99.90;;;;;;4819557;29;20687;-62
2023/02/13 11:22:31;;;;;;;26.70;15.97;;;12.90;99.90;;;;;;4823874;29;20251;-61
2023/02/13 11:25:38;;;;;;;28.50;16.67;;;12.90;99.90;;;;;;4824178;29;20305;-62
2023/02/13 11:28:52;;;;;;;30.40;16.50;;;13.00;99.90;;;;;;4816201;29;20297;-62
2023/02/13 11:32:06;;;;;;;25.43;16.47;;;13.30;99.90;;;;;;4821829;29;20212;-62
2023/02/13 11:35:28;;;;;;;25.67;16.27;;;13.70;99.90;;;;;;4823594;29;20251;-62
2023/02/13 11:38:34;;;;;;;24.60;15.60;;;13.70;99.90;;;;;;4817600;29;20557;-61
2023/02/13 11:41:42;;;;;;;25.40;15.77;;;13.90;99.90;;;;;;4818684;29;20284;-62
2023/02/13 11:44:52;;;;;;;24.53;15.83;;;13.90;99.90;;;;;;4823233;29;20239;-61
2023/02/13 11:47:59;;;;;;;28.60;16.30;;;14.30;99.90;;;;;;4817438;29;20715;-61
2023/02/13 11:51:06;;;;;;;27.17;16.50;;;14.70;99.90;;;;;;4813331;29;20588;-63
2023/02/13 11:54:31;;;;;;;26.97;17.27;;;14.90;99.90;;;;;;4822474;29;20261;-62
2023/02/13 11:57:38;;;;;;;24.73;15.97;;;14.90;99.90;;;;;;4814549;29;20232;-64
2023/02/13 12:00:44;;;;;;;26.47;16.57;;;14.90;99.90;;;;;;4813662;29;20226;-64
2023/02/13 12:04:03;;;;;;;26.90;16.90;;;14.90;99.90;;;;;;4820777;29;20280;-65
2023/02/13 12:07:19;;;;;;;27.50;17.63;;;14.90;99.90;;;;;;4817327;29;20208;-64
2023/02/13 12:10:27;;;;;;;27.50;17.63;;;14.90;99.90;;;;;;4815407;29;20220;-64
2023/02/13 12:13:37;;;;;;;29.70;17.70;;;14.80;99.90;;;;;;4820471;29;20601;-63
2023/02/13 12:16:49;;;;;;;28.93;17.60;;;14.60;99.90;;;;;;4806567;29;20244;-64
2023/02/13 12:19:57;;;;;;;31.60;17.87;;;14.20;99.90;;;;;;4820994;29;20227;-64
2023/02/13 12:23:12;;;;;;;29.40;17.70;;;13.90;99.90;;;;;;4814528;29;20205;-64
2023/02/13 12:26:26;;;;;;;27.20;17.03;;;14.20;99.90;;;;;;4814097;29;20596;-64
2023/02/13 12:29:51;;;;;;;27.20;17.27;;;14.20;99.90;;;;;;4813983;29;20702;-64
2023/02/13 12:33:07;;;;;;;29.87;16.43;;;14.20;99.90;;;;;;4824800;29;20208;-64
2023/02/13 12:36:20;;;;;;;29.57;17.13;;;14.20;99.90;;;;;;4824346;29;20228;-62
2023/02/13 12:39:33;;;;;;;26.50;16.53;;;14.50;99.90;;;;;;4812158;29;20277;-61
2023/02/13 12:42:46;;;;;;;26.60;16.60;;;14.50;99.90;;;;;;4823767;29;20588;-62
2023/02/13 12:45:57;;;;;;;24.50;15.37;;;14.30;99.90;;;;;;4813547;29;20214;-62
2023/02/13 12:49:15;;;;;;;28.30;16.27;;;14.50;99.90;;;;;;4814134;29;20233;-62
2023/02/13 12:52:34;;;;;;;28.90;16.23;;;14.80;99.90;;;;;;4821549;29;20341;-62
2023/02/13 12:56:04;;;;;;;27.67;16.50;;;14.80;99.90;;;;;;4820686;29;20260;-61
2023/02/13 12:59:17;;;;;;;28.63;16.77;;;14.50;99.90;;;;;;4816647;29;20243;-62
2023/02/13 13:02:44;;;;;;;26.10;16.47;;;14.70;99.90;;;;;;4820235;29;20217;-62
2023/02/13 13:06:10;;;;;;;29.60;16.53;;;14.80;99.90;;;;;;4824588;29;20356;-61
2023/02/13 13:09:40;;;;;;;32.40;17.17;;;14.80;99.90;;;;;;4820517;29;20252;-61
2023/02/13 13:12:59;;;;;;;26.57;15.63;;;14.80;99.90;;;;;;4822606;29;20827;-61
2023/02/13 13:16:14;;;;;;;25.57;15.83;;;14.70;99.90;;;;;;4812379;29;20213;-64
2023/02/13 13:19:33;;;;;;;23.30;14.57;;;14.70;99.90;;;;;;4821045;29;20571;-61
2023/02/13 13:22:45;;;;;;;23.87;16.20;;;14.80;99.90;;;;;;4818025;29;20237;-61
2023/02/13 13:26:01;;;;;;;22.27;14.43;;;14.80;99.90;;;;;;4821102;29;20228;-64
2023/02/13 13:29:12;;;;;;;24.37;14.50;;;14.70;99.90;;;;;;4823456;29;20223;-63
2023/02/13 13:32:21;;;;;;;22.97;15.07;;;14.70;99.90;;;;;;4812216;29;20566;-61
2023/02/13 13:35:28;;;;;;;25.33;14.93;;;14.70;99.90;;;;;;4823226;29;20784;-64
2023/02/13 13:38:50;;;;;;;25.63;16.67;;;14.40;99.90;;;;;;4823082;29;20272;-61
2023/02/13 13:42:08;;;;;;;25.83;15.10;;;14.20;99.90;;;;;;4822037;29;20236;-62
2023/02/13 13:45:31;;;;;;;24.80;15.27;;;14.30;99.90;;;;;;4817569;29;20244;-64
2023/02/13 13:49:06;;;;;;;21.53;14.80;;;14.30;99.90;;;;;;4805248;29;20250;-64
2023/02/13 13:52:25;;;;;;;24.57;14.80;;;14.10;99.90;;;;;;4816171;29;20267;-64
2023/02/13 13:55:58;;;;;;;21.00;13.87;;;13.90;99.90;;;;;;4817784;29;20320;-64
2023/02/13 13:59:17;;;;;;;23.50;13.80;;;13.70;99.90;;;;;;4816436;29;20357;-63
2023/02/13 14:02:49;;;;;;;23.53;13.90;;;13.60;99.90;;;;;;4823210;29;20743;-64
2023/02/13 14:06:04;;;;;;;25.17;15.10;;;13.50;99.90;;;;;;4818904;29;20734;-64
2023/02/13 14:09:39;;;;;;;23.73;14.17;;;13.40;99.90;;;;;;4821214;29;20264;-64
2023/02/13 14:12:48;;;;;;;26.40;15.43;;;13.50;99.90;;;;;;4822851;29;20361;-64
2023/02/13 14:15:55;;;;;;;30.43;15.80;;;13.80;99.90;;;;;;4823616;29;20208;-64
2023/02/13 14:19:01;;;;;;;27.50;16.33;;;13.70;99.90;;;;;;4823169;29;20208;-64
2023/02/13 14:22:32;;;;;;;27.17;15.30;;;13.60;99.90;;;;;;4823027;29;20718;-65
2023/02/13 14:25:38;;;;;;;25.17;15.47;;;13.70;99.90;;;;;;4821249;29;20296;-63
2023/02/13 14:28:56;;;;;;;32.43;16.30;;;13.60;99.90;;;;;;4806393;29;20366;-63
2023/02/13 14:32:07;;;;;;;25.13;15.43;;;13.50;99.90;;;;;;4823331;29;20659;-64
2023/02/13 14:35:20;;;;;;;24.80;15.30;;;13.70;99.90;;;;;;4823130;29;20211;-63
2023/02/13 14:38:27;;;;;;;25.23;14.83;;;13.70;99.90;;;;;;4818904;29;20552;-64
2023/02/13 14:41:46;;;;;;;25.27;14.77;;;13.60;99.90;;;;;;4816320;29;20239;-64
2023/02/13 14:44:55;;;;;;;31.20;15.13;;;13.60;99.90;;;;;;4805210;29;20798;-64
2023/02/13 14:48:07;;;;;;;25.60;14.80;;;13.70;99.90;;;;;;4817404;29;20212;-65
2023/02/13 14:51:27;;;;;;;28.10;14.43;;;13.70;99.90;;;;;;4825895;29;20245;-64
2023/02/13 14:54:36;;;;;;;24.33;15.10;;;13.70;99.90;;;;;;4820649;29;20220;-64
2023/02/13 14:57:44;;;;;;;23.83;14.73;;;13.80;99.90;;;;;;4803316;29;20276;-63
2023/02/13 15:00:54;;;;;;;24.10;14.73;;;13.90;99.90;;;;;;4799813;29;20205;-64
2023/02/13 15:04:10;;;;;;;21.67;13.97;;;13.90;99.90;;;;;;4802321;29;20213;-63
2023/02/13 15:07:20;;;;;;;25.20;14.23;;;13.80;99.90;;;;;;4799317;29;20229;-64
2023/02/13 15:10:40;;;;;;;24.70;14.10;;;13.70;99.90;;;;;;4797823;29;20221;-64
2023/02/13 15:13:45;;;;;;;24.80;15.10;;;13.80;99.90;;;;;;4808673;29;20282;-64
2023/02/13 15:16:56;;;;;;;25.33;15.30;;;13.80;99.90;;;;;;4804614;29;20266;-63
2023/02/13 15:20:08;;;;;;;25.50;14.83;;;13.70;99.90;;;;;;4801858;29;20212;-64
2023/02/13 15:23:21;;;;;;;24.90;14.93;;;13.60;99.90;;;;;;4806332;29;20241;-64
2023/02/13 15:26:28;;;;;;;23.10;14.77;;;13.50;99.90;;;;;;4802440;29;20309;-64
2023/02/13 15:29:34;;;;;;;28.03;14.83;;;13.50;99.90;;;;;;4804265;29;20281;-63
2023/02/13 15:32:56;;;;;;;25.67;15.43;;;13.40;99.90;;;;;;4807475;29;20228;-64
2023/02/13 15:36:05;;;;;;;26.30;14.53;;;13.30;99.90;;;;;;4806921;29;20592;-63
2023/02/13 15:39:18;;;;;;;25.50;14.93;;;13.20;99.90;;;;;;4804967;29;20749;-63
2023/02/13 15:42:25;;;;;;;29.30;17.03;;;13.10;99.90;;;;;;4799492;29;20228;-63
2023/02/13 15:45:31;;;;;;;29.33;15.97;;;13.00;99.90;;;;;;4801234;29;20240;-61
2023/02/13 15:48:37;;;;;;;23.87;15.13;;;12.90;99.90;;;;;;4802077;29;20247;-64
2023/02/13 15:51:46;;;;;;;26.80;15.60;;;12.90;99.90;;;;;;4802958;29;20233;-63
2023/02/13 15:54:54;;;;;;;28.60;15.63;;;12.90;99.90;;;;;;4804028;29;20208;-64
2023/02/13 15:58:01;;;;;;;27.07;15.60;;;12.80;99.90;;;;;;4811269;29;20640;-64
2023/02/13 16:01:09;;;;;;;30.83;15.97;;;12.70;99.90;;;;;;4819213;29;20274;-63
2023/02/13 16:04:17;;;;;;;25.57;15.90;;;12.60;99.90;;;;;;4824047;29;20672;-63
2023/02/13 16:07:25;;;;;;;28.30;16.07;;;12.50;99.90;;;;;;4822042;29;20235;-63
2023/02/13 16:10:32;;;;;;;27.23;16.43;;;12.40;99.90;;;;;;4821595;29;20636;-63
2023/02/13 16:13:39;;;;;;;27.60;16.50;;;12.30;99.90;;;;;;4822339;29;20239;-63
2023/02/13 16:16:50;;;;;;;28.80;16.93;;;12.20;99.90;;;;;;4821718;29;20272;-63
2023/02/13 16:19:59;;;;;;;25.80;16.37;;;12.10;99.90;;;;;;4817312;29;20216;-64
2023/02/13 16:23:15;;;;;;;26.93;16.40;;;12.00;99.90;;;;;;4822633;29;20385;-64
2023/02/13 16:26:21;;;;;;;31.00;16.43;;;11.90;99.90;;;;;;4817720;29;20204;-63
2023/02/13 16:29:27;;;;;;;25.30;14.83;;;11.70;99.90;;;;;;4818597;29;20227;-63
2023/02/13 16:32:37;;;;;;;28.60;16.10;;;11.60;99.90;;;;;;4820473;29;20208;-64
2023/02/13 16:35:44;;;;;;;31.40;16.70;;;11.40;99.90;;;;;;4822524;29;20220;-61
2023/02/13 16:38:52;;;;;;;31.23;16.47;;;11.30;99.90;;;;;;4821418;29;20572;-61
2023/02/13 16:42:00;;;;;;;31.70;16.93;;;11.00;99.90;;;;;;4820538;29;20235;-64
2023/02/13 16:45:22;;;;;;;33.80;17.37;;;10.90;99.90;;;;;;4823789;29;20589;-61
2023/02/13 16:48:28;;;;;;;30.73;17.67;;;10.70;99.90;;;;;;4819182;29;20245;-64
2023/02/13 16:51:38;;;;;;;39.80;19.30;;;10.50;99.90;;;;;;4817131;29;20223;-63
2023/02/13 16:54:52;;;;;;;32.47;18.90;;;10.30;99.90;;;;;;4822741;29;20221;-61
2023/02/13 16:58:03;;;;;;;31.67;17.27;;;10.10;99.90;;;;;;4817855;29;20264;-61